sensor_id;sensor_type;location;lat;lon;timestamp;temperature;humidity
33655;DHT22;19997;51.274;22.506;2023-04-03T00:02:14;4.20;99.90
33655;DHT22;19997;51.274;22.506;2023-04-03T00:04:41;4.20;99.90
33655;DHT22;19997;51.274;22.506;2023-04-03T00:07:08;4.20;99.90
33655;DHT22;19997;51.274;22.506;2023-04-03T00:09:36;4.30;99.90
33655;DHT22;19997;51.274;22.506;2023-04-03T00:12:03;4.30;99.90
33655;DHT22;19997;51.274;22.506;2023-04-03T00:14:31;4.30;99.90
33655;DHT22;19997;51.274;22.506;2023-04-03T00:16:58;4.20;99.90
33655;DHT22;19997;51.274;22.506;2023-04-03T00:19:25;4.30;99.90
33655;DHT22;19997;51.274;22.506;2023-04-03T00:21:52;4.20;99.90
33655;DHT22;19997;51.274;22.506;2023-04-03T00:24:20;4.20;99.90
33655;DHT22;19997;51.274;22.506;2023-04-03T00:26:48;4.20;99.90
33655;DHT22;19997;51.274;22.506;2023-04-03T00:29:15;4.00;99.90
33655;DHT22;19997;51.274;22.506;2023-04-03T00:31:42;4.10;99.90
33655;DHT22;19997;51.274;22.506;2023-04-03T00:34:09;4.10;99.90
33655;DHT22;19997;51.274;22.506;2023-04-03T00:36:37;4.20;99.90
33655;DHT22;19997;51.274;22.506;2023-04-03T00:39:04;4.20;99.90
33655;DHT22;19997;51.274;22.506;2023-04-03T00:41:31;4.10;99.90
33655;DHT22;19997;51.274;22.506;2023-04-03T00:44:00;4.10;99.90
33655;DHT22;19997;51.274;22.506;2023-04-03T00:46:27;4.10;99.90
33655;DHT22;19997;51.274;22.506;2023-04-03T00:48:54;4.10;99.90
33655;DHT22;19997;51.274;22.506;2023-04-03T00:51:23;4.10;99.90
33655;DHT22;19997;51.274;22.506;2023-04-03T00:53:54;4.00;99.90
33655;DHT22;19997;51.274;22.506;2023-04-03T00:56:24;4.00;99.90
33655;DHT22;19997;51.274;22.506;2023-04-03T00:58:56;4.00;99.90
33655;DHT22;19997;51.274;22.506;2023-04-03T01:01:27;4.00;99.90
33655;DHT22;19997;51.274;22.506;2023-04-03T01:03:55;4.00;99.90
33655;DHT22;19997;51.274;22.506;2023-04-03T01:06:27;4.00;99.90
33655;DHT22;19997;51.274;22.506;2023-04-03T01:09:02;4.00;99.90
33655;DHT22;19997;51.274;22.506;2023-04-03T01:11:29;4.00;99.90
33655;DHT22;19997;51.274;22.506;2023-04-03T01:13:57;4.00;99.90
33655;DHT22;19997;51.274;22.506;2023-04-03T01:16:26;3.90;99.90
33655;DHT22;19997;51.274;22.506;2023-04-03T01:18:58;3.90;99.90
33655;DHT22;19997;51.274;22.506;2023-04-03T01:22:00;3.90;99.90
33655;DHT22;19997;51.274;22.506;2023-04-03T01:24:33;3.90;99.90
33655;DHT22;19997;51.274;22.506;2023-04-03T01:27:05;3.90;99.90
33655;DHT22;19997;51.274;22.506;2023-04-03T01:29:32;3.80;99.90
33655;DHT22;19997;51.274;22.506;2023-04-03T01:32:02;3.80;99.90
33655;DHT22;19997;51.274;22.506;2023-04-03T01:34:30;3.80;99.90
33655;DHT22;19997;51.274;22.506;2023-04-03T01:36:59;3.80;99.90
33655;DHT22;19997;51.274;22.506;2023-04-03T01:39:26;3.90;99.90
33655;DHT22;19997;51.274;22.506;2023-04-03T01:41:53;3.90;99.90
33655;DHT22;19997;51.274;22.506;2023-04-03T01:44:27;3.90;99.90
33655;DHT22;19997;51.274;22.506;2023-04-03T01:46:55;3.90;99.90
33655;DHT22;19997;51.274;22.506;2023-04-03T01:49:25;3.90;99.90
33655;DHT22;19997;51.274;22.506;2023-04-03T01:51:52;3.80;99.90
33655;DHT22;19997;51.274;22.506;2023-04-03T01:54:19;3.80;99.90
33655;DHT22;19997;51.274;22.506;2023-04-03T01:56:46;3.80;99.90
33655;DHT22;19997;51.274;22.506;2023-04-03T01:59:13;3.80;99.90
33655;DHT22;19997;51.274;22.506;2023-04-03T02:01:43;3.70;99.90
33655;DHT22;19997;51.274;22.506;2023-04-03T02:04:11;3.70;99.90
33655;DHT22;19997;51.274;22.506;2023-04-03T02:06:39;3.70;99.90
33655;DHT22;19997;51.274;22.506;2023-04-03T02:09:06;3.60;99.90
33655;DHT22;19997;51.274;22.506;2023-04-03T02:11:33;3.50;99.90
33655;DHT22;19997;51.274;22.506;2023-04-03T02:14:01;3.50;99.90
33655;DHT22;19997;51.274;22.506;2023-04-03T02:16:29;3.50;99.90
33655;DHT22;19997;51.274;22.506;2023-04-03T02:18:56;3.50;99.90
33655;DHT22;19997;51.274;22.506;2023-04-03T02:21:23;3.40;99.90
33655;DHT22;19997;51.274;22.506;2023-04-03T02:23:52;3.40;99.90
33655;DHT22;19997;51.274;22.506;2023-04-03T02:26:19;3.40;99.90
33655;DHT22;19997;51.274;22.506;2023-04-03T02:28:46;3.40;99.90
33655;DHT22;19997;51.274;22.506;2023-04-03T02:31:13;3.40;99.90
33655;DHT22;19997;51.274;22.506;2023-04-03T02:33:42;3.40;99.90
33655;DHT22;19997;51.274;22.506;2023-04-03T02:36:12;3.40;99.90
33655;DHT22;19997;51.274;22.506;2023-04-03T02:38:42;3.30;99.90
33655;DHT22;19997;51.274;22.506;2023-04-03T02:41:12;3.30;99.90
33655;DHT22;19997;51.274;22.506;2023-04-03T02:43:39;3.30;99.90
33655;DHT22;19997;51.274;22.506;2023-04-03T02:46:07;3.40;99.90
33655;DHT22;19997;51.274;22.506;2023-04-03T02:48:35;3.40;99.90
33655;DHT22;19997;51.274;22.506;2023-04-03T02:51:02;3.40;99.90
33655;DHT22;19997;51.274;22.506;2023-04-03T02:53:30;3.50;99.90
33655;DHT22;19997;51.274;22.506;2023-04-03T02:55:59;3.50;99.90
33655;DHT22;19997;51.274;22.506;2023-04-03T02:58:27;3.50;99.90
33655;DHT22;19997;51.274;22.506;2023-04-03T03:00:57;3.50;99.90
33655;DHT22;19997;51.274;22.506;2023-04-03T03:03:24;3.50;99.90
33655;DHT22;19997;51.274;22.506;2023-04-03T03:06:01;3.40;99.90
33655;DHT22;19997;51.274;22.506;2023-04-03T03:08:28;3.40;99.90
33655;DHT22;19997;51.274;22.506;2023-04-03T03:10:55;3.40;99.90
33655;DHT22;19997;51.274;22.506;2023-04-03T03:13:22;3.40;99.90
33655;DHT22;19997;51.274;22.506;2023-04-03T03:15:51;3.40;99.90
33655;DHT22;19997;51.274;22.506;2023-04-03T03:18:19;3.40;99.90
33655;DHT22;19997;51.274;22.506;2023-04-03T03:20:51;3.30;99.90
33655;DHT22;19997;51.274;22.506;2023-04-03T03:23:20;3.30;99.90
33655;DHT22;19997;51.274;22.506;2023-04-03T03:25:49;3.30;99.90
33655;DHT22;19997;51.274;22.506;2023-04-03T03:28:16;3.30;99.90
33655;DHT22;19997;51.274;22.506;2023-04-03T03:30:43;3.30;99.90
33655;DHT22;19997;51.274;22.506;2023-04-03T03:33:12;3.20;99.90
33655;DHT22;19997;51.274;22.506;2023-04-03T03:35:39;3.20;99.90
33655;DHT22;19997;51.274;22.506;2023-04-03T03:38:07;3.10;99.90
33655;DHT22;19997;51.274;22.506;2023-04-03T03:40:34;3.10;99.90
33655;DHT22;19997;51.274;22.506;2023-04-03T03:43:02;3.00;99.90
33655;DHT22;19997;51.274;22.506;2023-04-03T03:45:29;2.90;99.90
33655;DHT22;19997;51.274;22.506;2023-04-03T03:47:57;2.90;99.90
33655;DHT22;19997;51.274;22.506;2023-04-03T03:50:26;2.90;99.90
33655;DHT22;19997;51.274;22.506;2023-04-03T03:52:53;2.90;99.90
33655;DHT22;19997;51.274;22.506;2023-04-03T03:55:23;2.90;99.90
33655;DHT22;19997;51.274;22.506;2023-04-03T03:57:54;2.90;99.90
33655;DHT22;19997;51.274;22.506;2023-04-03T04:00:21;2.80;99.90
33655;DHT22;19997;51.274;22.506;2023-04-03T04:02:53;2.80;99.90
33655;DHT22;19997;51.274;22.506;2023-04-03T04:05:26;2.80;99.90
33655;DHT22;19997;51.274;22.506;2023-04-03T04:07:54;2.80;99.90
33655;DHT22;19997;51.274;22.506;2023-04-03T04:10:22;2.80;99.90
33655;DHT22;19997;51.274;22.506;2023-04-03T04:12:49;2.80;99.90
33655;DHT22;19997;51.274;22.506;2023-04-03T04:15:37;2.70;99.90
33655;DHT22;19997;51.274;22.506;2023-04-03T04:18:04;2.70;99.90
33655;DHT22;19997;51.274;22.506;2023-04-03T04:20:33;2.60;99.90
33655;DHT22;19997;51.274;22.506;2023-04-03T04:23:00;2.60;99.90
33655;DHT22;19997;51.274;22.506;2023-04-03T04:25:29;2.50;99.90
33655;DHT22;19997;51.274;22.506;2023-04-03T04:27:56;2.50;99.90
33655;DHT22;19997;51.274;22.506;2023-04-03T04:30:23;2.50;99.90
33655;DHT22;19997;51.274;22.506;2023-04-03T04:32:50;2.50;99.90
33655;DHT22;19997;51.274;22.506;2023-04-03T04:35:21;2.50;99.90
33655;DHT22;19997;51.274;22.506;2023-04-03T04:37:51;2.50;99.90
33655;DHT22;19997;51.274;22.506;2023-04-03T04:40:18;2.60;99.90
33655;DHT22;19997;51.274;22.506;2023-04-03T04:42:46;2.50;99.90
33655;DHT22;19997;51.274;22.506;2023-04-03T04:45:13;2.50;99.90
33655;DHT22;19997;51.274;22.506;2023-04-03T04:47:43;2.50;99.90
33655;DHT22;19997;51.274;22.506;2023-04-03T04:50:10;2.50;99.90
33655;DHT22;19997;51.274;22.506;2023-04-03T04:52:38;2.50;99.90
33655;DHT22;19997;51.274;22.506;2023-04-03T04:55:08;2.50;99.90
33655;DHT22;19997;51.274;22.506;2023-04-03T04:57:36;2.50;99.90
33655;DHT22;19997;51.274;22.506;2023-04-03T05:00:06;2.50;99.90
33655;DHT22;19997;51.274;22.506;2023-04-03T05:02:33;2.60;99.90
33655;DHT22;19997;51.274;22.506;2023-04-03T05:05:01;2.60;99.90
33655;DHT22;19997;51.274;22.506;2023-04-03T05:07:29;2.70;99.90
33655;DHT22;19997;51.274;22.506;2023-04-03T05:09:58;2.80;99.90
33655;DHT22;19997;51.274;22.506;2023-04-03T05:12:27;2.90;99.90
33655;DHT22;19997;51.274;22.506;2023-04-03T05:14:58;2.90;99.90
33655;DHT22;19997;51.274;22.506;2023-04-03T05:17:28;2.90;99.90
33655;DHT22;19997;51.274;22.506;2023-04-03T05:19:56;2.90;99.90
33655;DHT22;19997;51.274;22.506;2023-04-03T05:22:25;2.90;99.90
33655;DHT22;19997;51.274;22.506;2023-04-03T05:24:56;3.00;99.90
33655;DHT22;19997;51.274;22.506;2023-04-03T05:27:24;3.00;99.90
33655;DHT22;19997;51.274;22.506;2023-04-03T05:29:55;3.10;99.10
33655;DHT22;19997;51.274;22.506;2023-04-03T05:32:23;3.10;98.10
33655;DHT22;19997;51.274;22.506;2023-04-03T05:34:59;3.20;97.80
33655;DHT22;19997;51.274;22.506;2023-04-03T05:37:27;3.20;97.10
33655;DHT22;19997;51.274;22.506;2023-04-03T05:39:54;3.20;96.10
33655;DHT22;19997;51.274;22.506;2023-04-03T05:42:22;3.20;95.60
33655;DHT22;19997;51.274;22.506;2023-04-03T05:44:49;3.20;95.20
33655;DHT22;19997;51.274;22.506;2023-04-03T05:47:18;3.10;94.70
33655;DHT22;19997;51.274;22.506;2023-04-03T05:49:45;3.20;94.60
33655;DHT22;19997;51.274;22.506;2023-04-03T05:52:22;3.20;93.90
33655;DHT22;19997;51.274;22.506;2023-04-03T05:54:51;3.20;93.70
33655;DHT22;19997;51.274;22.506;2023-04-03T05:57:23;3.20;93.00
33655;DHT22;19997;51.274;22.506;2023-04-03T05:59:50;3.20;93.10
33655;DHT22;19997;51.274;22.506;2023-04-03T06:02:23;3.20;92.70
33655;DHT22;19997;51.274;22.506;2023-04-03T06:04:52;3.30;92.70
33655;DHT22;19997;51.274;22.506;2023-04-03T06:07:20;3.30;92.50
33655;DHT22;19997;51.274;22.506;2023-04-03T06:09:50;3.40;92.10
33655;DHT22;19997;51.274;22.506;2023-04-03T06:12:17;3.40;91.80
33655;DHT22;19997;51.274;22.506;2023-04-03T06:14:44;3.50;91.30
33655;DHT22;19997;51.274;22.506;2023-04-03T06:17:13;3.50;91.00
33655;DHT22;19997;51.274;22.506;2023-04-03T06:19:42;3.60;90.70
33655;DHT22;19997;51.274;22.506;2023-04-03T06:22:10;3.60;90.60
33655;DHT22;19997;51.274;22.506;2023-04-03T06:24:38;3.70;90.30
33655;DHT22;19997;51.274;22.506;2023-04-03T06:27:05;3.70;90.00
33655;DHT22;19997;51.274;22.506;2023-04-03T06:29:32;3.80;89.60
33655;DHT22;19997;51.274;22.506;2023-04-03T06:32:00;3.80;89.30
33655;DHT22;19997;51.274;22.506;2023-04-03T06:34:27;3.80;86.90
33655;DHT22;19997;51.274;22.506;2023-04-03T06:36:55;3.80;86.80
33655;DHT22;19997;51.274;22.506;2023-04-03T06:39:22;3.80;86.90
33655;DHT22;19997;51.274;22.506;2023-04-03T06:41:50;3.80;86.70
33655;DHT22;19997;51.274;22.506;2023-04-03T06:44:18;3.90;87.10
33655;DHT22;19997;51.274;22.506;2023-04-03T06:46:45;3.90;86.40
33655;DHT22;19997;51.274;22.506;2023-04-03T06:49:12;3.90;86.10
33655;DHT22;19997;51.274;22.506;2023-04-03T06:51:40;3.90;86.30
33655;DHT22;19997;51.274;22.506;2023-04-03T06:54:09;3.90;85.70
33655;DHT22;19997;51.274;22.506;2023-04-03T06:56:36;3.90;85.80
33655;DHT22;19997;51.274;22.506;2023-04-03T06:59:04;4.00;85.80
33655;DHT22;19997;51.274;22.506;2023-04-03T07:01:31;4.10;85.50
33655;DHT22;19997;51.274;22.506;2023-04-03T07:03:58;4.20;85.30
33655;DHT22;19997;51.274;22.506;2023-04-03T07:06:25;4.20;84.80
33655;DHT22;19997;51.274;22.506;2023-04-03T07:08:54;4.30;84.10
33655;DHT22;19997;51.274;22.506;2023-04-03T07:11:22;4.20;83.20
33655;DHT22;19997;51.274;22.506;2023-04-03T07:13:50;4.20;83.30
33655;DHT22;19997;51.274;22.506;2023-04-03T07:16:17;4.20;83.20
33655;DHT22;19997;51.274;22.506;2023-04-03T07:18:44;4.20;82.90
33655;DHT22;19997;51.274;22.506;2023-04-03T07:21:12;4.20;83.20
33655;DHT22;19997;51.274;22.506;2023-04-03T07:23:39;4.30;83.00
33655;DHT22;19997;51.274;22.506;2023-04-03T07:26:06;4.30;82.40
33655;DHT22;19997;51.274;22.506;2023-04-03T07:28:36;4.40;82.10
33655;DHT22;19997;51.274;22.506;2023-04-03T07:31:06;4.50;81.50
33655;DHT22;19997;51.274;22.506;2023-04-03T07:33:35;4.60;81.20
33655;DHT22;19997;51.274;22.506;2023-04-03T07:36:03;4.70;80.80
33655;DHT22;19997;51.274;22.506;2023-04-03T07:38:33;4.80;80.90
33655;DHT22;19997;51.274;22.506;2023-04-03T07:41:01;5.00;80.00
33655;DHT22;19997;51.274;22.506;2023-04-03T07:43:28;5.00;79.50
33655;DHT22;19997;51.274;22.506;2023-04-03T07:45:56;5.10;79.50
33655;DHT22;19997;51.274;22.506;2023-04-03T07:48:25;5.10;78.40
33655;DHT22;19997;51.274;22.506;2023-04-03T07:50:52;5.10;78.50
33655;DHT22;19997;51.274;22.506;2023-04-03T07:53:19;5.10;77.60
33655;DHT22;19997;51.274;22.506;2023-04-03T07:55:47;5.10;77.10
33655;DHT22;19997;51.274;22.506;2023-04-03T07:58:18;5.20;77.40
33655;DHT22;19997;51.274;22.506;2023-04-03T08:00:45;5.20;76.10
33655;DHT22;19997;51.274;22.506;2023-04-03T08:03:14;5.20;76.10
33655;DHT22;19997;51.274;22.506;2023-04-03T08:05:45;5.20;76.20
33655;DHT22;19997;51.274;22.506;2023-04-03T08:08:15;5.30;76.10
33655;DHT22;19997;51.274;22.506;2023-04-03T08:10:43;5.30;75.80
33655;DHT22;19997;51.274;22.506;2023-04-03T08:13:10;5.30;75.30
33655;DHT22;19997;51.274;22.506;2023-04-03T08:15:37;5.40;75.10
33655;DHT22;19997;51.274;22.506;2023-04-03T08:18:04;5.40;75.30
33655;DHT22;19997;51.274;22.506;2023-04-03T08:20:33;5.40;75.20
33655;DHT22;19997;51.274;22.506;2023-04-03T08:23:00;5.40;75.50
33655;DHT22;19997;51.274;22.506;2023-04-03T08:25:27;5.50;75.60
33655;DHT22;19997;51.274;22.506;2023-04-03T08:27:55;5.60;74.60
33655;DHT22;19997;51.274;22.506;2023-04-03T08:30:22;5.60;74.30
33655;DHT22;19997;51.274;22.506;2023-04-03T08:32:49;5.60;73.60
33655;DHT22;19997;51.274;22.506;2023-04-03T08:35:17;5.70;73.80
33655;DHT22;19997;51.274;22.506;2023-04-03T08:37:46;5.80;73.50
33655;DHT22;19997;51.274;22.506;2023-04-03T08:40:16;5.80;73.20
33655;DHT22;19997;51.274;22.506;2023-04-03T08:42:54;5.90;73.00
33655;DHT22;19997;51.274;22.506;2023-04-03T08:45:27;5.80;72.10
33655;DHT22;19997;51.274;22.506;2023-04-03T08:48:03;5.80;71.80
33655;DHT22;19997;51.274;22.506;2023-04-03T08:50:37;5.70;70.90
33655;DHT22;19997;51.274;22.506;2023-04-03T08:53:13;5.80;71.30
33655;DHT22;19997;51.274;22.506;2023-04-03T08:55:43;5.80;70.60
33655;DHT22;19997;51.274;22.506;2023-04-03T08:58:12;5.70;70.20
33655;DHT22;19997;51.274;22.506;2023-04-03T09:00:45;5.70;70.30
33655;DHT22;19997;51.274;22.506;2023-04-03T09:03:14;5.80;69.40
33655;DHT22;19997;51.274;22.506;2023-04-03T09:05:45;5.80;69.30
33655;DHT22;19997;51.274;22.506;2023-04-03T09:08:21;5.90;68.80
33655;DHT22;19997;51.274;22.506;2023-04-03T09:10:52;5.90;69.10
33655;DHT22;19997;51.274;22.506;2023-04-03T09:13:30;6.00;69.30
33655;DHT22;19997;51.274;22.506;2023-04-03T09:16:02;6.10;69.80
33655;DHT22;19997;51.274;22.506;2023-04-03T09:18:34;6.20;68.70
33655;DHT22;19997;51.274;22.506;2023-04-03T09:21:11;6.20;67.70
33655;DHT22;19997;51.274;22.506;2023-04-03T09:23:44;6.20;67.80
33655;DHT22;19997;51.274;22.506;2023-04-03T09:26:16;6.30;68.30
33655;DHT22;19997;51.274;22.506;2023-04-03T09:28:45;6.40;67.10
33655;DHT22;19997;51.274;22.506;2023-04-03T09:31:19;6.50;66.90
33655;DHT22;19997;51.274;22.506;2023-04-03T09:33:48;6.50;66.70
33655;DHT22;19997;51.274;22.506;2023-04-03T09:36:38;6.60;66.40
33655;DHT22;19997;51.274;22.506;2023-04-03T09:39:11;6.60;66.10
33655;DHT22;19997;51.274;22.506;2023-04-03T09:41:38;6.70;65.90
33655;DHT22;19997;51.274;22.506;2023-04-03T09:44:20;6.80;65.80
33655;DHT22;19997;51.274;22.506;2023-04-03T09:46:48;6.90;64.90
33655;DHT22;19997;51.274;22.506;2023-04-03T09:49:15;6.90;64.30
33655;DHT22;19997;51.274;22.506;2023-04-03T09:51:44;6.90;64.30
33655;DHT22;19997;51.274;22.506;2023-04-03T09:54:34;6.90;64.10
33655;DHT22;19997;51.274;22.506;2023-04-03T09:57:10;6.90;63.60
33655;DHT22;19997;51.274;22.506;2023-04-03T09:59:46;6.90;64.50
33655;DHT22;19997;51.274;22.506;2023-04-03T10:02:27;7.00;64.00
33655;DHT22;19997;51.274;22.506;2023-04-03T10:04:55;7.00;63.30
33655;DHT22;19997;51.274;22.506;2023-04-03T10:07:31;7.00;64.10
33655;DHT22;19997;51.274;22.506;2023-04-03T10:10:02;7.10;63.70
33655;DHT22;19997;51.274;22.506;2023-04-03T10:12:30;7.20;63.70
33655;DHT22;19997;51.274;22.506;2023-04-03T10:15:01;7.30;63.80
33655;DHT22;19997;51.274;22.506;2023-04-03T10:17:36;7.50;63.00
33655;DHT22;19997;51.274;22.506;2023-04-03T10:20:11;7.50;62.60
33655;DHT22;19997;51.274;22.506;2023-04-03T10:22:49;7.50;62.60
33655;DHT22;19997;51.274;22.506;2023-04-03T10:25:26;7.60;63.50
33655;DHT22;19997;51.274;22.506;2023-04-03T10:28:00;7.70;62.60
33655;DHT22;19997;51.274;22.506;2023-04-03T10:30:33;7.80;62.60
33655;DHT22;19997;51.274;22.506;2023-04-03T10:33:20;7.90;62.50
33655;DHT22;19997;51.274;22.506;2023-04-03T10:35:58;8.00;61.70
33655;DHT22;19997;51.274;22.506;2023-04-03T10:38:33;8.10;61.30
33655;DHT22;19997;51.274;22.506;2023-04-03T10:41:10;8.20;60.80
33655;DHT22;19997;51.274;22.506;2023-04-03T10:43:43;8.20;60.10
33655;DHT22;19997;51.274;22.506;2023-04-03T10:46:20;8.20;59.90
33655;DHT22;19997;51.274;22.506;2023-04-03T10:49:01;8.40;60.80
33655;DHT22;19997;51.274;22.506;2023-04-03T10:51:36;8.50;59.10
33655;DHT22;19997;51.274;22.506;2023-04-03T10:54:11;8.60;58.70
33655;DHT22;19997;51.274;22.506;2023-04-03T10:56:42;8.60;58.40
33655;DHT22;19997;51.274;22.506;2023-04-03T10:59:25;8.60;58.00
33655;DHT22;19997;51.274;22.506;2023-04-03T11:01:56;8.40;58.10
33655;DHT22;19997;51.274;22.506;2023-04-03T11:04:26;8.30;58.10
33655;DHT22;19997;51.274;22.506;2023-04-03T11:06:58;8.30;57.80
33655;DHT22;19997;51.274;22.506;2023-04-03T11:09:28;8.30;58.40
33655;DHT22;19997;51.274;22.506;2023-04-03T11:12:02;8.40;58.50
33655;DHT22;19997;51.274;22.506;2023-04-03T11:14:32;8.30;58.40
33655;DHT22;19997;51.274;22.506;2023-04-03T11:17:06;8.20;58.20
33655;DHT22;19997;51.274;22.506;2023-04-03T11:19:41;8.00;57.60
33655;DHT22;19997;51.274;22.506;2023-04-03T11:22:15;7.90;58.00
33655;DHT22;19997;51.274;22.506;2023-04-03T11:24:46;7.80;58.40
33655;DHT22;19997;51.274;22.506;2023-04-03T11:27:22;7.80;58.90
33655;DHT22;19997;51.274;22.506;2023-04-03T11:29:51;7.80;59.20
33655;DHT22;19997;51.274;22.506;2023-04-03T11:32:47;7.90;59.50
33655;DHT22;19997;51.274;22.506;2023-04-03T11:35:17;8.00;59.50
33655;DHT22;19997;51.274;22.506;2023-04-03T11:37:47;8.10;58.30
33655;DHT22;19997;51.274;22.506;2023-04-03T11:40:24;8.10;58.60
33655;DHT22;19997;51.274;22.506;2023-04-03T11:42:55;8.10;58.30
33655;DHT22;19997;51.274;22.506;2023-04-03T11:45:36;8.20;58.20
33655;DHT22;19997;51.274;22.506;2023-04-03T11:48:05;8.30;58.20
33655;DHT22;19997;51.274;22.506;2023-04-03T11:50:41;8.50;58.80
33655;DHT22;19997;51.274;22.506;2023-04-03T11:53:34;8.60;57.40
33655;DHT22;19997;51.274;22.506;2023-04-03T11:56:26;8.60;57.80
33655;DHT22;19997;51.274;22.506;2023-04-03T11:59:24;8.60;57.20
33655;DHT22;19997;51.274;22.506;2023-04-03T12:01:55;8.50;56.30
33655;DHT22;19997;51.274;22.506;2023-04-03T12:04:25;8.30;55.90
33655;DHT22;19997;51.274;22.506;2023-04-03T12:07:12;8.20;56.40
33655;DHT22;19997;51.274;22.506;2023-04-03T12:10:01;8.10;56.30
33655;DHT22;19997;51.274;22.506;2023-04-03T12:12:34;8.00;55.80
33655;DHT22;19997;51.274;22.506;2023-04-03T12:18:56;7.80;55.90
33655;DHT22;19997;51.274;22.506;2023-04-03T12:24:25;7.80;56.40
33655;DHT22;19997;51.274;22.506;2023-04-03T12:27:04;7.80;56.10
33655;DHT22;19997;51.274;22.506;2023-04-03T12:29:35;7.70;56.10
33655;DHT22;19997;51.274;22.506;2023-04-03T12:32:13;7.70;56.40
33655;DHT22;19997;51.274;22.506;2023-04-03T12:35:01;7.70;56.60
33655;DHT22;19997;51.274;22.506;2023-04-03T12:37:48;7.80;56.60
33655;DHT22;19997;51.274;22.506;2023-04-03T12:40:21;7.80;56.00
33655;DHT22;19997;51.274;22.506;2023-04-03T12:43:20;7.70;55.20
33655;DHT22;19997;51.274;22.506;2023-04-03T12:45:58;7.70;55.50
33655;DHT22;19997;51.274;22.506;2023-04-03T12:48:29;7.70;55.20
33655;DHT22;19997;51.274;22.506;2023-04-03T12:50:58;7.70;55.20
33655;DHT22;19997;51.274;22.506;2023-04-03T12:53:27;7.60;55.30
33655;DHT22;19997;51.274;22.506;2023-04-03T12:55:57;7.60;55.50
33655;DHT22;19997;51.274;22.506;2023-04-03T12:58:26;7.60;55.90
33655;DHT22;19997;51.274;22.506;2023-04-03T13:01:01;7.60;56.00
33655;DHT22;19997;51.274;22.506;2023-04-03T13:03:30;7.60;56.70
33655;DHT22;19997;51.274;22.506;2023-04-03T13:06:01;7.60;57.00
33655;DHT22;19997;51.274;22.506;2023-04-03T13:08:29;7.60;57.00
33655;DHT22;19997;51.274;22.506;2023-04-03T13:11:00;7.70;57.40
33655;DHT22;19997;51.274;22.506;2023-04-03T13:13:28;7.80;57.40
33655;DHT22;19997;51.274;22.506;2023-04-03T13:15:56;7.90;57.60
33655;DHT22;19997;51.274;22.506;2023-04-03T13:18:25;8.00;57.20
33655;DHT22;19997;51.274;22.506;2023-04-03T13:20:56;8.20;56.70
33655;DHT22;19997;51.274;22.506;2023-04-03T13:23:25;8.30;56.00
33655;DHT22;19997;51.274;22.506;2023-04-03T13:25:52;8.40;55.80
33655;DHT22;19997;51.274;22.506;2023-04-03T13:28:23;8.40;56.00
33655;DHT22;19997;51.274;22.506;2023-04-03T13:30:55;8.40;55.80
33655;DHT22;19997;51.274;22.506;2023-04-03T13:33:26;8.40;54.80
33655;DHT22;19997;51.274;22.506;2023-04-03T13:35:57;8.30;54.80
33655;DHT22;19997;51.274;22.506;2023-04-03T13:38:31;8.40;55.10
33655;DHT22;19997;51.274;22.506;2023-04-03T13:41:01;8.40;54.90
33655;DHT22;19997;51.274;22.506;2023-04-03T13:43:31;8.40;54.70
33655;DHT22;19997;51.274;22.506;2023-04-03T13:46:04;8.50;55.00
33655;DHT22;19997;51.274;22.506;2023-04-03T13:48:40;8.50;54.90
33655;DHT22;19997;51.274;22.506;2023-04-03T13:51:19;8.60;54.50
33655;DHT22;19997;51.274;22.506;2023-04-03T13:53:51;8.60;54.70
33655;DHT22;19997;51.274;22.506;2023-04-03T13:56:23;8.60;54.40
33655;DHT22;19997;51.274;22.506;2023-04-03T13:59:02;8.60;54.10
33655;DHT22;19997;51.274;22.506;2023-04-03T14:01:41;8.50;54.10
33655;DHT22;19997;51.274;22.506;2023-04-03T14:04:18;8.30;53.70
33655;DHT22;19997;51.274;22.506;2023-04-03T14:06:46;8.20;54.50
33655;DHT22;19997;51.274;22.506;2023-04-03T14:09:16;8.20;55.20
33655;DHT22;19997;51.274;22.506;2023-04-03T14:11:44;8.20;55.50
33655;DHT22;19997;51.274;22.506;2023-04-03T14:14:14;8.20;54.70
33655;DHT22;19997;51.274;22.506;2023-04-03T14:16:44;8.20;54.10
33655;DHT22;19997;51.274;22.506;2023-04-03T14:19:19;8.20;54.10
33655;DHT22;19997;51.274;22.506;2023-04-03T14:21:47;8.20;53.60
33655;DHT22;19997;51.274;22.506;2023-04-03T14:24:16;8.30;53.90
33655;DHT22;19997;51.274;22.506;2023-04-03T14:26:43;8.40;53.90
33655;DHT22;19997;51.274;22.506;2023-04-03T14:29:11;8.40;53.60
33655;DHT22;19997;51.274;22.506;2023-04-03T14:31:39;8.40;53.30
33655;DHT22;19997;51.274;22.506;2023-04-03T14:34:06;8.30;53.20
33655;DHT22;19997;51.274;22.506;2023-04-03T14:36:34;8.10;53.20
33655;DHT22;19997;51.274;22.506;2023-04-03T14:39:01;8.00;53.20
33655;DHT22;19997;51.274;22.506;2023-04-03T14:41:29;7.90;53.90
33655;DHT22;19997;51.274;22.506;2023-04-03T14:43:57;7.80;54.50
33655;DHT22;19997;51.274;22.506;2023-04-03T14:46:26;7.90;55.10
33655;DHT22;19997;51.274;22.506;2023-04-03T14:48:55;7.90;54.40
33655;DHT22;19997;51.274;22.506;2023-04-03T14:51:22;7.90;54.40
33655;DHT22;19997;51.274;22.506;2023-04-03T14:53:49;7.80;54.30
33655;DHT22;19997;51.274;22.506;2023-04-03T14:56:18;7.80;54.40
33655;DHT22;19997;51.274;22.506;2023-04-03T14:58:48;7.80;54.10
33655;DHT22;19997;51.274;22.506;2023-04-03T15:01:17;7.80;54.40
33655;DHT22;19997;51.274;22.506;2023-04-03T15:03:44;7.80;54.40
33655;DHT22;19997;51.274;22.506;2023-04-03T15:06:12;7.90;54.40
33655;DHT22;19997;51.274;22.506;2023-04-03T15:08:40;7.80;54.70
33655;DHT22;19997;51.274;22.506;2023-04-03T15:11:09;7.90;54.40
33655;DHT22;19997;51.274;22.506;2023-04-03T15:13:36;7.80;54.40
33655;DHT22;19997;51.274;22.506;2023-04-03T15:16:05;7.80;54.40
33655;DHT22;19997;51.274;22.506;2023-04-03T15:18:37;7.80;54.30
33655;DHT22;19997;51.274;22.506;2023-04-03T15:21:04;7.70;54.00
33655;DHT22;19997;51.274;22.506;2023-04-03T15:23:32;7.70;53.80
33655;DHT22;19997;51.274;22.506;2023-04-03T15:25:59;7.60;54.10
33655;DHT22;19997;51.274;22.506;2023-04-03T15:28:29;7.50;53.90
33655;DHT22;19997;51.274;22.506;2023-04-03T15:30:56;7.50;54.00
33655;DHT22;19997;51.274;22.506;2023-04-03T15:33:25;7.40;53.80
33655;DHT22;19997;51.274;22.506;2023-04-03T15:35:52;7.30;53.70
33655;DHT22;19997;51.274;22.506;2023-04-03T15:38:19;7.30;54.40
33655;DHT22;19997;51.274;22.506;2023-04-03T15:40:47;7.20;54.60
33655;DHT22;19997;51.274;22.506;2023-04-03T15:43:14;7.20;55.10
33655;DHT22;19997;51.274;22.506;2023-04-03T15:45:43;7.10;55.20
33655;DHT22;19997;51.274;22.506;2023-04-03T15:48:11;7.10;55.30
33655;DHT22;19997;51.274;22.506;2023-04-03T15:50:40;7.00;56.00
33655;DHT22;19997;51.274;22.506;2023-04-03T15:53:07;6.90;56.00
33655;DHT22;19997;51.274;22.506;2023-04-03T15:55:36;6.90;55.70
33655;DHT22;19997;51.274;22.506;2023-04-03T15:58:04;6.80;56.10